Warrensburg, Missouri
Current Conditions -  °F | °C
As of 12:35 AM on Wednesday 26 Nov 2014 (Local Time) from KRCM Reporting Station
Overcast Overcast  
Wind Chill: 26°   Ceiling: 9000
Heat Index: 34°   Visibility: 10mi
Dew Point: 23°   Wind: 10mph
Humidity: 65%   Direction: 150°SSE
Pressure: 30"   Gusts: NA
Location:  38.77°N, 93.74°W
Report Text: KRCM 260635Z AUTO 15009KT 10SM OVC090 01/M05 A3000 RMK AO2
Loading
Personal Weather Stations






























Interactive Weather Map New forecast layout! Learn more

10-Day Weather Forecast

Advertisements
Track Severe Weather on mobile